Anne Mette Bulker — 2FER7 — position and weather

sailwx.info

Track history (hours):
 
Tides and Currents Weather Stations Pressure Air Temp Water Temp Dewpoint Dewpoint Depression Visibility Wind Speed Wind Dir Waves Ship Positions

Anne Mette Bulker

Last reported at 2018-Jul-19 13:01 UTC. Time now 2018-Jul-19 15:22 UTC.
Position N 35°34' E 139°59'.

Length 185 m; draft 6 m.

Type: Cargo ship. MMSI: 235090622.

Date/timePositionNaut miles runAvg speedWind from/ knotsBaromVisibWave heightAir tempDewpointWater temp
2018-Jul-19 13:01N 35°34' E 139°59'0 0.0
2018-Jul-19 12:52N 35°34' E 139°59'0 0.0
2018-Jul-19 11:10N 35°34' E 139°59'0 0.0
2018-Jul-19 09:07N 35°34' E 139°59'0 2.1
2018-Jul-19 09:00N 35°34' E 139°59'5 9.1
2018-Jul-19 08:30N 35°32' E 139°54'510.6
2018-Jul-19 08:00N 35°30' E 139°48'3 7.2
2018-Jul-19 07:30N 35°30' E 139°43'1 1.0
2018-Jul-19 07:00N 35°29' E 139°43'0 0.0
2018-Jul-19 06:30N 35°29' E 139°43'0 0.0
2018-Jul-19 06:00N 35°29' E 139°43'0 0.0
2018-Jul-19 05:30N 35°29' E 139°43'0 0.0
2018-Jul-19 05:00N 35°29' E 139°43'0 0.0
2018-Jul-19 04:30N 35°29' E 139°43'0 0.0
2018-Jul-19 04:00N 35°29' E 139°43'0 0.0
2018-Jul-19 03:30N 35°29' E 139°43'0 0.0
2018-Jul-19 03:00N 35°29' E 139°43'0 0.0
2018-Jul-19 02:30N 35°29' E 139°43'0 0.0
2018-Jul-19 02:00N 35°29' E 139°43'0 0.0
2018-Jul-19 01:30N 35°29' E 139°43'0 0.0
2018-Jul-19 01:00N 35°29' E 139°43'0 0.0
2018-Jul-19 00:30N 35°29' E 139°43'0 0.0
2018-Jul-19 00:00N 35°29' E 139°43'0 0.0
2018-Jul-18 23:30N 35°29' E 139°43'0 0.0
2018-Jul-18 23:00N 35°29' E 139°43'0 0.0
2018-Jul-18 22:30N 35°29' E 139°43'0 0.0
2018-Jul-18 22:00N 35°29' E 139°43'0 0.0
2018-Jul-18 21:30N 35°29' E 139°43'0 0.0
2018-Jul-18 21:00N 35°29' E 139°43'0 0.0
2018-Jul-18 20:30N 35°29' E 139°43'0 0.0
2018-Jul-18 20:00N 35°29' E 139°43'0 0.0
2018-Jul-18 19:30N 35°29' E 139°43'0 0.0
2018-Jul-18 19:00N 35°29' E 139°43'0 0.0
2018-Jul-18 18:30N 35°29' E 139°43'0 0.0
2018-Jul-18 18:00N 35°29' E 139°43'0 0.0
2018-Jul-18 17:30N 35°29' E 139°43'0 0.0
2018-Jul-18 17:00N 35°29' E 139°43'0 0.0
2018-Jul-18 16:30N 35°29' E 139°43'0 0.0
2018-Jul-18 16:00N 35°29' E 139°43'0 0.0
2018-Jul-18 15:30N 35°29' E 139°43'0 0.0
2018-Jul-18 15:00N 35°29' E 139°43'0 0.0
2018-Jul-18 14:30N 35°29' E 139°43'0 0.0
2018-Jul-18 13:30N 35°29' E 139°43'0 0.0
2018-Jul-18 13:00N 35°29' E 139°43'0 0.0
2018-Jul-18 12:30N 35°29' E 139°43'0 0.0
2018-Jul-18 12:00N 35°29' E 139°43'0 0.0
2018-Jul-18 11:30N 35°29' E 139°43'0 0.0
2018-Jul-18 10:30N 35°29' E 139°43'0 0.0
2018-Jul-18 10:00N 35°29' E 139°43'0 0.0
2018-Jul-18 09:30N 35°29' E 139°43'0 0.0
2018-Jul-18 09:00N 35°29' E 139°43'0 0.0
2018-Jul-18 08:30N 35°29' E 139°43'0 0.0
2018-Jul-18 08:00N 35°29' E 139°43'0 0.0
2018-Jul-18 07:30N 35°29' E 139°43'0 0.0
2018-Jul-18 07:00N 35°29' E 139°43'0 0.0
2018-Jul-18 06:30N 35°29' E 139°43'0 0.0
2018-Jul-18 06:00N 35°29' E 139°43'0 0.0
2018-Jul-18 05:30N 35°29' E 139°43'0 0.0
2018-Jul-18 05:00N 35°29' E 139°43'0 0.0
2018-Jul-18 04:30N 35°29' E 139°43'0 0.0
2018-Jul-18 04:00N 35°29' E 139°43'0 0.0
2018-Jul-18 03:30N 35°29' E 139°43'0 0.0
2018-Jul-18 03:00N 35°29' E 139°43'0 0.0
2018-Jul-18 02:27N 35°29' E 139°43'0 0.0
2018-Jul-18 02:00N 35°29' E 139°43'0 0.0
2018-Jul-18 01:30N 35°29' E 139°43'0 0.0
2018-Jul-18 01:00N 35°29' E 139°43'0 0.0
2018-Jul-18 00:30N 35°29' E 139°43'0 0.0
2018-Jul-18 00:00N 35°29' E 139°43'0 0.0
2018-Jul-17 23:30N 35°29' E 139°43'0 0.0
2018-Jul-17 23:00N 35°29' E 139°43'0 0.0
2018-Jul-17 22:27N 35°29' E 139°43'1 1.5
2018-Jul-17 22:00N 35°29' E 139°42'3 6.3
2018-Jul-17 21:30N 35°27' E 139°45'1 2.3
2018-Jul-17 21:00N 35°28' E 139°47'0 0.0
2018-Jul-17 20:30N 35°28' E 139°47'0 0.0
2018-Jul-17 20:00N 35°28' E 139°47'0 0.0
2018-Jul-17 19:30N 35°28' E 139°47'0 0.0
2018-Jul-17 19:00N 35°28' E 139°47'0 0.0
2018-Jul-17 18:30N 35°28' E 139°47'0 0.0
2018-Jul-17 18:00N 35°28' E 139°47'0 0.1
2018-Jul-17 17:30N 35°28' E 139°47'0 0.0
2018-Jul-17 17:00N 35°28' E 139°47'0 0.0
2018-Jul-17 16:30N 35°28' E 139°47'0 0.0
2018-Jul-17 16:00N 35°28' E 139°47'0 0.0
2018-Jul-17 15:30N 35°28' E 139°47'0 0.0
2018-Jul-17 15:00N 35°28' E 139°47'0 0.0
2018-Jul-17 14:30N 35°28' E 139°47'0 0.1
2018-Jul-17 14:00N 35°28' E 139°47'0 0.1
2018-Jul-17 13:30N 35°28' E 139°47'0 0.0
2018-Jul-17 13:00N 35°28' E 139°47'0 0.1
2018-Jul-17 12:30N 35°28' E 139°47'0 0.0
2018-Jul-17 12:00N 35°28' E 139°47'0 0.0
2018-Jul-17 11:30N 35°28' E 139°47'0 0.1
2018-Jul-17 11:00N 35°28' E 139°47'0 0.0
2018-Jul-17 10:30N 35°28' E 139°47'0 0.0
2018-Jul-17 10:00N 35°28' E 139°47'0 0.0
2018-Jul-17 09:30N 35°28' E 139°47'0 0.0
2018-Jul-17 09:00N 35°28' E 139°47'0 0.0
2018-Jul-17 08:30N 35°28' E 139°47'0 0.1
2018-Jul-17 08:00N 35°28' E 139°47'0 0.6
2018-Jul-17 07:30N 35°28' E 139°47'3 6.6
2018-Jul-17 07:00N 35°29' E 139°51'5 9.2
2018-Jul-17 06:30N 35°34' E 139°49'2 0.1
2018-Jul-16 02:24N 35°35' E 139°47'0 0.0
2018-Jul-16 01:54N 35°35' E 139°47'0 0.0
2018-Jul-16 01:30N 35°35' E 139°47'0 0.0
2018-Jul-16 01:00N 35°35' E 139°47'  
2018-Jul-13 20:24N 35°35' E 139°47'0 0.0
2018-Jul-13 19:48N 35°35' E 139°47'0 0.0
2018-Jul-13 19:30N 35°35' E 139°47'0 0.0
2018-Jul-12 22:37N 35°35' E 139°47'0 0.0
2018-Jul-12 22:29N 35°35' E 139°47'2 4.2
2018-Jul-12 22:00N 35°34' E 139°49'4 7.2
2018-Jul-12 21:28N 35°34' E 139°53'0 0.0
2018-Jul-12 20:58N 35°34' E 139°53'0 0.0
2018-Jul-12 20:28N 35°34' E 139°53'0 0.0
2018-Jul-12 19:58N 35°34' E 139°53'0 0.0
2018-Jul-12 19:25N 35°34' E 139°53'0 0.0
2018-Jul-12 18:58N 35°34' E 139°53'0 0.0
2018-Jul-12 18:22N 35°34' E 139°53'0 0.0
2018-Jul-12 17:46N 35°34' E 139°53'0 0.0
2018-Jul-12 17:28N 35°34' E 139°53'0 0.0
2018-Jul-12 16:58N 35°34' E 139°53'0 0.0
2018-Jul-12 16:25N 35°34' E 139°53'0 0.0
2018-Jul-12 15:58N 35°34' E 139°53'0 0.0
2018-Jul-12 15:25N 35°34' E 139°53'0 0.0
2018-Jul-12 14:58N 35°34' E 139°53'0 0.0
2018-Jul-12 14:28N 35°34' E 139°53'0 0.0
2018-Jul-12 13:58N 35°34' E 139°53'0 0.0
2018-Jul-12 13:28N 35°34' E 139°53'0 0.0
2018-Jul-12 12:34N 35°34' E 139°53'0 0.0
2018-Jul-12 12:19N 35°34' E 139°53'0 0.0
2018-Jul-12 11:58N 35°34' E 139°53'0 0.1
2018-Jul-12 11:28N 35°34' E 139°53'0 0.1
2018-Jul-12 10:52N 35°34' E 139°53'0 0.0
2018-Jul-12 10:28N 35°34' E 139°53'0 0.0
2018-Jul-12 09:49N 35°34' E 139°53'0 0.0
2018-Jul-12 09:28N 35°34' E 139°53'0 0.0
2018-Jul-12 08:55N 35°34' E 139°53'0 0.1
2018-Jul-12 08:16N 35°34' E 139°53'0 0.0
2018-Jul-12 07:55N 35°34' E 139°53'0 0.0
2018-Jul-12 07:28N 35°34' E 139°53'0 0.1
2018-Jul-12 06:46N 35°34' E 139°53'0 0.1
2018-Jul-12 06:25N 35°34' E 139°53'0 0.0
2018-Jul-12 05:37N 35°34' E 139°53'0 0.0
2018-Jul-12 05:13N 35°34' E 139°53'0 0.0
2018-Jul-12 04:55N 35°34' E 139°53'0 0.0
2018-Jul-12 04:16N 35°34' E 139°53'0 0.3
2018-Jul-12 03:52N 35°34' E 139°53'0 0.2
2018-Jul-12 03:23N 35°34' E 139°53'1 3.8
2018-Jul-12 03:00N 35°32' E 139°53'4 8.7
2018-Jul-12 02:30N 35°28' E 139°51'612.5
2018-Jul-12 02:00N 35°24' E 139°46'612.0
2018-Jul-12 01:30N 35°18' E 139°45'611.7
2018-Jul-12 01:00N 35°12' E 139°47'4 7.1
2018-Jul-12 00:30N 35°08' E 139°46'2 4.6
2018-Jul-12 00:00N 35°06' E 139°45'4 7.9
2018-Jul-11 23:30N 35°03' E 139°43'5 9.6
2018-Jul-11 23:00N 34°58' E 139°40'510.6
2018-Jul-11 22:29N 34°53' E 139°42'5 9.0
2018-Jul-11 21:59N 34°50' E 139°46'6 9.8
2018-Jul-11 21:25N 34°49' E 139°52'811.5
2018-Jul-11 20:44N 34°49' E 140°02'  
Track history (hours):
 
Tides and Currents Weather Stations Pressure Air Temp Water Temp Dewpoint Dewpoint Depression Visibility Wind Speed Wind Dir Waves Ship Positions

Anne Mette Bulker

Last reported at 2018-Jul-19 13:01 UTC. Time now 2018-Jul-19 15:22 UTC.
Position N 35°34' E 139°59'.

Length 185 m; draft 6 m.

Type: Cargo ship. MMSI: 235090622.

Date/timePositionNaut miles runAvg speedWind from/ knotsBaromVisibWave heightAir tempDewpointWater temp
2018-Jul-19 13:01N 35°34' E 139°59'0 0.0
2018-Jul-19 12:52N 35°34' E 139°59'0 0.0
2018-Jul-19 11:10N 35°34' E 139°59'0 0.0
2018-Jul-19 09:07N 35°34' E 139°59'0 2.1
2018-Jul-19 09:00N 35°34' E 139°59'5 9.1
2018-Jul-19 08:30N 35°32' E 139°54'510.6
2018-Jul-19 08:00N 35°30' E 139°48'3 7.2
2018-Jul-19 07:30N 35°30' E 139°43'1 1.0
2018-Jul-19 07:00N 35°29' E 139°43'0 0.0
2018-Jul-19 06:30N 35°29' E 139°43'0 0.0
2018-Jul-19 06:00N 35°29' E 139°43'0 0.0
2018-Jul-19 05:30N 35°29' E 139°43'0 0.0
2018-Jul-19 05:00N 35°29' E 139°43'0 0.0
2018-Jul-19 04:30N 35°29' E 139°43'0 0.0
2018-Jul-19 04:00N 35°29' E 139°43'0 0.0
2018-Jul-19 03:30N 35°29' E 139°43'0 0.0
2018-Jul-19 03:00N 35°29' E 139°43'0 0.0
2018-Jul-19 02:30N 35°29' E 139°43'0 0.0
2018-Jul-19 02:00N 35°29' E 139°43'0 0.0
2018-Jul-19 01:30N 35°29' E 139°43'0 0.0
2018-Jul-19 01:00N 35°29' E 139°43'0 0.0
2018-Jul-19 00:30N 35°29' E 139°43'0 0.0
2018-Jul-19 00:00N 35°29' E 139°43'0 0.0
2018-Jul-18 23:30N 35°29' E 139°43'0 0.0
2018-Jul-18 23:00N 35°29' E 139°43'0 0.0
2018-Jul-18 22:30N 35°29' E 139°43'0 0.0
2018-Jul-18 22:00N 35°29' E 139°43'0 0.0
2018-Jul-18 21:30N 35°29' E 139°43'0 0.0
2018-Jul-18 21:00N 35°29' E 139°43'0 0.0
2018-Jul-18 20:30N 35°29' E 139°43'0 0.0
2018-Jul-18 20:00N 35°29' E 139°43'0 0.0
2018-Jul-18 19:30N 35°29' E 139°43'0 0.0
2018-Jul-18 19:00N 35°29' E 139°43'0 0.0
2018-Jul-18 18:30N 35°29' E 139°43'0 0.0
2018-Jul-18 18:00N 35°29' E 139°43'0 0.0
2018-Jul-18 17:30N 35°29' E 139°43'0 0.0
2018-Jul-18 17:00N 35°29' E 139°43'0 0.0
2018-Jul-18 16:30N 35°29' E 139°43'0 0.0
2018-Jul-18 16:00N 35°29' E 139°43'0 0.0
2018-Jul-18 15:30N 35°29' E 139°43'0 0.0
2018-Jul-18 15:00N 35°29' E 139°43'0 0.0
2018-Jul-18 14:30N 35°29' E 139°43'0 0.0
2018-Jul-18 13:30N 35°29' E 139°43'0 0.0
2018-Jul-18 13:00N 35°29' E 139°43'0 0.0
2018-Jul-18 12:30N 35°29' E 139°43'0 0.0
2018-Jul-18 12:00N 35°29' E 139°43'0 0.0
2018-Jul-18 11:30N 35°29' E 139°43'0 0.0
2018-Jul-18 10:30N 35°29' E 139°43'0 0.0
2018-Jul-18 10:00N 35°29' E 139°43'0 0.0
2018-Jul-18 09:30N 35°29' E 139°43'0 0.0
2018-Jul-18 09:00N 35°29' E 139°43'0 0.0
2018-Jul-18 08:30N 35°29' E 139°43'0 0.0
2018-Jul-18 08:00N 35°29' E 139°43'0 0.0
2018-Jul-18 07:30N 35°29' E 139°43'0 0.0
2018-Jul-18 07:00N 35°29' E 139°43'0 0.0
2018-Jul-18 06:30N 35°29' E 139°43'0 0.0
2018-Jul-18 06:00N 35°29' E 139°43'0 0.0
2018-Jul-18 05:30N 35°29' E 139°43'0 0.0
2018-Jul-18 05:00N 35°29' E 139°43'0 0.0
2018-Jul-18 04:30N 35°29' E 139°43'0 0.0
2018-Jul-18 04:00N 35°29' E 139°43'0 0.0
2018-Jul-18 03:30N 35°29' E 139°43'0 0.0
2018-Jul-18 03:00N 35°29' E 139°43'0 0.0
2018-Jul-18 02:27N 35°29' E 139°43'0 0.0
2018-Jul-18 02:00N 35°29' E 139°43'0 0.0
2018-Jul-18 01:30N 35°29' E 139°43'0 0.0
2018-Jul-18 01:00N 35°29' E 139°43'0 0.0
2018-Jul-18 00:30N 35°29' E 139°43'0 0.0
2018-Jul-18 00:00N 35°29' E 139°43'0 0.0
2018-Jul-17 23:30N 35°29' E 139°43'0 0.0
2018-Jul-17 23:00N 35°29' E 139°43'0 0.0
2018-Jul-17 22:27N 35°29' E 139°43'1 1.5
2018-Jul-17 22:00N 35°29' E 139°42'3 6.3
2018-Jul-17 21:30N 35°27' E 139°45'1 2.3
2018-Jul-17 21:00N 35°28' E 139°47'0 0.0
2018-Jul-17 20:30N 35°28' E 139°47'0 0.0
2018-Jul-17 20:00N 35°28' E 139°47'0 0.0
2018-Jul-17 19:30N 35°28' E 139°47'0 0.0
2018-Jul-17 19:00N 35°28' E 139°47'0 0.0
2018-Jul-17 18:30N 35°28' E 139°47'0 0.0
2018-Jul-17 18:00N 35°28' E 139°47'0 0.1
2018-Jul-17 17:30N 35°28' E 139°47'0 0.0
2018-Jul-17 17:00N 35°28' E 139°47'0 0.0
2018-Jul-17 16:30N 35°28' E 139°47'0 0.0
2018-Jul-17 16:00N 35°28' E 139°47'0 0.0
2018-Jul-17 15:30N 35°28' E 139°47'0 0.0
2018-Jul-17 15:00N 35°28' E 139°47'0 0.0
2018-Jul-17 14:30N 35°28' E 139°47'0 0.1
2018-Jul-17 14:00N 35°28' E 139°47'0 0.1
2018-Jul-17 13:30N 35°28' E 139°47'0 0.0
2018-Jul-17 13:00N 35°28' E 139°47'0 0.1
2018-Jul-17 12:30N 35°28' E 139°47'0 0.0
2018-Jul-17 12:00N 35°28' E 139°47'0 0.0
2018-Jul-17 11:30N 35°28' E 139°47'0 0.1
2018-Jul-17 11:00N 35°28' E 139°47'0 0.0
2018-Jul-17 10:30N 35°28' E 139°47'0 0.0
2018-Jul-17 10:00N 35°28' E 139°47'0 0.0
2018-Jul-17 09:30N 35°28' E 139°47'0 0.0
2018-Jul-17 09:00N 35°28' E 139°47'0 0.0
2018-Jul-17 08:30N 35°28' E 139°47'0 0.1
2018-Jul-17 08:00N 35°28' E 139°47'0 0.6
2018-Jul-17 07:30N 35°28' E 139°47'3 6.6
2018-Jul-17 07:00N 35°29' E 139°51'5 9.2
2018-Jul-17 06:30N 35°34' E 139°49'2 0.1
2018-Jul-16 02:24N 35°35' E 139°47'0 0.0
2018-Jul-16 01:54N 35°35' E 139°47'0 0.0
2018-Jul-16 01:30N 35°35' E 139°47'0 0.0
2018-Jul-16 01:00N 35°35' E 139°47'  
2018-Jul-13 20:24N 35°35' E 139°47'0 0.0
2018-Jul-13 19:48N 35°35' E 139°47'0 0.0
2018-Jul-13 19:30N 35°35' E 139°47'0 0.0
2018-Jul-12 22:37N 35°35' E 139°47'0 0.0
2018-Jul-12 22:29N 35°35' E 139°47'2 4.2
2018-Jul-12 22:00N 35°34' E 139°49'4 7.2
2018-Jul-12 21:28N 35°34' E 139°53'0 0.0
2018-Jul-12 20:58N 35°34' E 139°53'0 0.0
2018-Jul-12 20:28N 35°34' E 139°53'0 0.0
2018-Jul-12 19:58N 35°34' E 139°53'0 0.0
2018-Jul-12 19:25N 35°34' E 139°53'0 0.0
2018-Jul-12 18:58N 35°34' E 139°53'0 0.0
2018-Jul-12 18:22N 35°34' E 139°53'0 0.0
2018-Jul-12 17:46N 35°34' E 139°53'0 0.0
2018-Jul-12 17:28N 35°34' E 139°53'0 0.0
2018-Jul-12 16:58N 35°34' E 139°53'0 0.0
2018-Jul-12 16:25N 35°34' E 139°53'0 0.0
2018-Jul-12 15:58N 35°34' E 139°53'0 0.0
2018-Jul-12 15:25N 35°34' E 139°53'0 0.0
2018-Jul-12 14:58N 35°34' E 139°53'0 0.0
2018-Jul-12 14:28N 35°34' E 139°53'0 0.0
2018-Jul-12 13:58N 35°34' E 139°53'0 0.0
2018-Jul-12 13:28N 35°34' E 139°53'0 0.0
2018-Jul-12 12:34N 35°34' E 139°53'0 0.0
2018-Jul-12 12:19N 35°34' E 139°53'0 0.0
2018-Jul-12 11:58N 35°34' E 139°53'0 0.1
2018-Jul-12 11:28N 35°34' E 139°53'0 0.1
2018-Jul-12 10:52N 35°34' E 139°53'0 0.0
2018-Jul-12 10:28N 35°34' E 139°53'0 0.0
2018-Jul-12 09:49N 35°34' E 139°53'0 0.0
2018-Jul-12 09:28N 35°34' E 139°53'0 0.0
2018-Jul-12 08:55N 35°34' E 139°53'0 0.1
2018-Jul-12 08:16N 35°34' E 139°53'0 0.0
2018-Jul-12 07:55N 35°34' E 139°53'0 0.0
2018-Jul-12 07:28N 35°34' E 139°53'0 0.1
2018-Jul-12 06:46N 35°34' E 139°53'0 0.1
2018-Jul-12 06:25N 35°34' E 139°53'0 0.0
2018-Jul-12 05:37N 35°34' E 139°53'0 0.0
2018-Jul-12 05:13N 35°34' E 139°53'0 0.0
2018-Jul-12 04:55N 35°34' E 139°53'0 0.0
2018-Jul-12 04:16N 35°34' E 139°53'0 0.3
2018-Jul-12 03:52N 35°34' E 139°53'0 0.2
2018-Jul-12 03:23N 35°34' E 139°53'1 3.8
2018-Jul-12 03:00N 35°32' E 139°53'4 8.7
2018-Jul-12 02:30N 35°28' E 139°51'612.5
2018-Jul-12 02:00N 35°24' E 139°46'612.0
2018-Jul-12 01:30N 35°18' E 139°45'611.7
2018-Jul-12 01:00N 35°12' E 139°47'4 7.1
2018-Jul-12 00:30N 35°08' E 139°46'2 4.6
2018-Jul-12 00:00N 35°06' E 139°45'4 7.9
2018-Jul-11 23:30N 35°03' E 139°43'5 9.6
2018-Jul-11 23:00N 34°58' E 139°40'510.6
2018-Jul-11 22:29N 34°53' E 139°42'5 9.0
2018-Jul-11 21:59N 34°50' E 139°46'6 9.8
2018-Jul-11 21:25N 34°49' E 139°52'811.5
2018-Jul-11 20:44N 34°49' E 140°02'  

Dump ship's entire track history